sensor_id;sensor_type;location;lat;lon;timestamp;P1;durP1;ratioP1;P2;durP2;ratioP2
12118;SDS011;6123;48.864;9.200;2023-12-20T00:00:39;1.00;;;1.00;;
12118;SDS011;6123;48.864;9.200;2023-12-20T00:03:05;1.00;;;1.00;;
12118;SDS011;6123;48.864;9.200;2023-12-20T00:05:30;1.27;;;1.17;;
12118;SDS011;6123;48.864;9.200;2023-12-20T00:08:00;1.08;;;1.00;;
12118;SDS011;6123;48.864;9.200;2023-12-20T00:10:25;1.40;;;1.30;;
12118;SDS011;6123;48.864;9.200;2023-12-20T00:12:51;0.98;;;0.98;;
12118;SDS011;6123;48.864;9.200;2023-12-20T00:15:16;0.90;;;0.90;;
12118;SDS011;6123;48.864;9.200;2023-12-20T00:17:42;1.23;;;1.13;;
12118;SDS011;6123;48.864;9.200;2023-12-20T00:20:08;1.02;;;0.90;;
12118;SDS011;6123;48.864;9.200;2023-12-20T00:22:33;1.30;;;1.20;;
12118;SDS011;6123;48.864;9.200;2023-12-20T00:24:59;1.45;;;1.35;;
12118;SDS011;6123;48.864;9.200;2023-12-20T00:27:24;1.38;;;1.27;;
12118;SDS011;6123;48.864;9.200;2023-12-20T00:29:50;1.10;;;1.10;;
12118;SDS011;6123;48.864;9.200;2023-12-20T00:32:16;1.50;;;1.40;;
12118;SDS011;6123;48.864;9.200;2023-12-20T00:34:41;1.35;;;1.23;;
12118;SDS011;6123;48.864;9.200;2023-12-20T00:37:07;1.80;;;1.30;;
12118;SDS011;6123;48.864;9.200;2023-12-20T00:39:33;1.20;;;1.17;;
12118;SDS011;6123;48.864;9.200;2023-12-20T00:41:58;2.05;;;1.60;;
12118;SDS011;6123;48.864;9.200;2023-12-20T00:44:24;2.10;;;1.60;;
12118;SDS011;6123;48.864;9.200;2023-12-20T00:46:49;1.30;;;1.20;;
12118;SDS011;6123;48.864;9.200;2023-12-20T00:49:15;1.65;;;1.55;;
12118;SDS011;6123;48.864;9.200;2023-12-20T00:51:40;1.80;;;1.70;;
12118;SDS011;6123;48.864;9.200;2023-12-20T00:54:06;2.15;;;1.92;;
12118;SDS011;6123;48.864;9.200;2023-12-20T00:56:31;2.05;;;1.95;;
12118;SDS011;6123;48.864;9.200;2023-12-20T00:58:57;2.40;;;2.20;;
12118;SDS011;6123;48.864;9.200;2023-12-20T01:01:22;2.50;;;2.30;;
12118;SDS011;6123;48.864;9.200;2023-12-20T01:03:48;2.75;;;2.38;;
12118;SDS011;6123;48.864;9.200;2023-12-20T01:06:16;2.80;;;2.40;;
12118;SDS011;6123;48.864;9.200;2023-12-20T01:08:41;2.40;;;2.20;;
12118;SDS011;6123;48.864;9.200;2023-12-20T01:11:07;2.30;;;2.20;;
12118;SDS011;6123;48.864;9.200;2023-12-20T01:13:32;2.28;;;2.08;;
12118;SDS011;6123;48.864;9.200;2023-12-20T01:15:58;3.75;;;1.92;;
12118;SDS011;6123;48.864;9.200;2023-12-20T01:18:23;2.33;;;2.22;;
12118;SDS011;6123;48.864;9.200;2023-12-20T01:20:49;2.25;;;2.05;;
12118;SDS011;6123;48.864;9.200;2023-12-20T01:23:14;3.30;;;2.25;;
12118;SDS011;6123;48.864;9.200;2023-12-20T01:25:40;2.30;;;2.10;;
12118;SDS011;6123;48.864;9.200;2023-12-20T01:28:06;2.50;;;2.30;;
12118;SDS011;6123;48.864;9.200;2023-12-20T01:30:31;2.45;;;2.25;;
12118;SDS011;6123;48.864;9.200;2023-12-20T01:32:57;2.65;;;2.30;;
12118;SDS011;6123;48.864;9.200;2023-12-20T01:35:24;2.78;;;2.47;;
12118;SDS011;6123;48.864;9.200;2023-12-20T01:37:50;2.45;;;2.25;;
12118;SDS011;6123;48.864;9.200;2023-12-20T01:40:16;2.47;;;2.28;;
12118;SDS011;6123;48.864;9.200;2023-12-20T01:42:41;2.55;;;2.35;;
12118;SDS011;6123;48.864;9.200;2023-12-20T01:45:07;3.42;;;2.75;;
12118;SDS011;6123;48.864;9.200;2023-12-20T01:47:33;2.70;;;2.50;;
12118;SDS011;6123;48.864;9.200;2023-12-20T01:49:59;3.40;;;3.08;;
12118;SDS011;6123;48.864;9.200;2023-12-20T01:52:25;2.63;;;2.42;;
12118;SDS011;6123;48.864;9.200;2023-12-20T01:54:51;3.00;;;2.75;;
12118;SDS011;6123;48.864;9.200;2023-12-20T01:57:16;4.35;;;2.53;;
12118;SDS011;6123;48.864;9.200;2023-12-20T01:59:42;2.72;;;2.50;;
12118;SDS011;6123;48.864;9.200;2023-12-20T02:02:09;2.50;;;2.30;;
12118;SDS011;6123;48.864;9.200;2023-12-20T02:04:37;2.50;;;2.30;;
12118;SDS011;6123;48.864;9.200;2023-12-20T02:07:03;2.58;;;2.40;;
12118;SDS011;6123;48.864;9.200;2023-12-20T02:09:29;2.78;;;2.50;;
12118;SDS011;6123;48.864;9.200;2023-12-20T02:11:55;2.50;;;2.30;;
12118;SDS011;6123;48.864;9.200;2023-12-20T02:14:21;3.30;;;2.60;;
12118;SDS011;6123;48.864;9.200;2023-12-20T02:16:46;2.85;;;2.58;;
12118;SDS011;6123;48.864;9.200;2023-12-20T02:19:13;2.97;;;2.75;;
12118;SDS011;6123;48.864;9.200;2023-12-20T02:21:39;2.50;;;2.30;;
12118;SDS011;6123;48.864;9.200;2023-12-20T02:24:05;2.63;;;2.42;;
12118;SDS011;6123;48.864;9.200;2023-12-20T02:26:31;2.60;;;2.40;;
12118;SDS011;6123;48.864;9.200;2023-12-20T02:28:58;2.22;;;2.03;;
12118;SDS011;6123;48.864;9.200;2023-12-20T02:31:24;2.38;;;2.28;;
12118;SDS011;6123;48.864;9.200;2023-12-20T02:33:49;2.33;;;2.13;;
12118;SDS011;6123;48.864;9.200;2023-12-20T02:36:15;2.70;;;2.50;;
12118;SDS011;6123;48.864;9.200;2023-12-20T02:38:40;2.92;;;2.38;;
12118;SDS011;6123;48.864;9.200;2023-12-20T02:41:06;2.13;;;2.00;;
12118;SDS011;6123;48.864;9.200;2023-12-20T02:43:31;2.38;;;2.20;;
12118;SDS011;6123;48.864;9.200;2023-12-20T02:45:57;1.77;;;1.67;;
12118;SDS011;6123;48.864;9.200;2023-12-20T02:48:22;1.30;;;1.20;;
12118;SDS011;6123;48.864;9.200;2023-12-20T02:50:48;0.80;;;0.80;;
12118;SDS011;6123;48.864;9.200;2023-12-20T02:53:14;0.57;;;0.47;;
12118;SDS011;6123;48.864;9.200;2023-12-20T02:55:39;0.70;;;0.25;;
12118;SDS011;6123;48.864;9.200;2023-12-20T02:58:05;0.38;;;0.38;;
12118;SDS011;6123;48.864;9.200;2023-12-20T03:00:30;0.30;;;0.20;;
12118;SDS011;6123;48.864;9.200;2023-12-20T03:02:56;0.55;;;0.25;;
12118;SDS011;6123;48.864;9.200;2023-12-20T03:05:21;0.40;;;0.40;;
12118;SDS011;6123;48.864;9.200;2023-12-20T03:07:47;0.10;;;0.10;;
12118;SDS011;6123;48.864;9.200;2023-12-20T03:10:12;0.30;;;0.20;;
12118;SDS011;6123;48.864;9.200;2023-12-20T03:12:38;0.10;;;0.10;;
12118;SDS011;6123;48.864;9.200;2023-12-20T03:15:04;0.20;;;0.20;;
12118;SDS011;6123;48.864;9.200;2023-12-20T03:17:31;0.20;;;0.20;;
12118;SDS011;6123;48.864;9.200;2023-12-20T03:19:57;0.30;;;0.30;;
12118;SDS011;6123;48.864;9.200;2023-12-20T03:22:22;0.20;;;0.20;;
12118;SDS011;6123;48.864;9.200;2023-12-20T03:24:48;0.40;;;0.40;;
12118;SDS011;6123;48.864;9.200;2023-12-20T03:27:13;0.00;;;0.00;;
12118;SDS011;6123;48.864;9.200;2023-12-20T03:29:39;0.20;;;0.20;;
12118;SDS011;6123;48.864;9.200;2023-12-20T03:32:04;0.28;;;0.28;;
12118;SDS011;6123;48.864;9.200;2023-12-20T03:34:30;0.20;;;0.20;;
12118;SDS011;6123;48.864;9.200;2023-12-20T03:36:56;0.10;;;0.10;;
12118;SDS011;6123;48.864;9.200;2023-12-20T03:39:21;0.85;;;0.20;;
12118;SDS011;6123;48.864;9.200;2023-12-20T03:41:47;0.38;;;0.20;;
12118;SDS011;6123;48.864;9.200;2023-12-20T03:44:12;0.38;;;0.38;;
12118;SDS011;6123;48.864;9.200;2023-12-20T03:46:38;0.20;;;0.20;;
12118;SDS011;6123;48.864;9.200;2023-12-20T03:49:03;0.20;;;0.20;;
12118;SDS011;6123;48.864;9.200;2023-12-20T03:51:28;0.30;;;0.30;;
12118;SDS011;6123;48.864;9.200;2023-12-20T03:53:54;0.30;;;0.30;;
12118;SDS011;6123;48.864;9.200;2023-12-20T03:56:19;0.38;;;0.30;;
12118;SDS011;6123;48.864;9.200;2023-12-20T03:58:45;0.55;;;0.40;;
12118;SDS011;6123;48.864;9.200;2023-12-20T04:01:11;0.75;;;0.50;;
12118;SDS011;6123;48.864;9.200;2023-12-20T04:03:39;0.50;;;0.50;;
12118;SDS011;6123;48.864;9.200;2023-12-20T04:06:05;0.52;;;0.52;;
12118;SDS011;6123;48.864;9.200;2023-12-20T04:08:31;0.40;;;0.40;;
12118;SDS011;6123;48.864;9.200;2023-12-20T04:10:56;0.75;;;0.32;;
12118;SDS011;6123;48.864;9.200;2023-12-20T04:13:22;0.20;;;0.20;;
12118;SDS011;6123;48.864;9.200;2023-12-20T04:15:47;0.20;;;0.20;;
12118;SDS011;6123;48.864;9.200;2023-12-20T04:18:15;0.40;;;0.40;;
12118;SDS011;6123;48.864;9.200;2023-12-20T04:20:40;0.63;;;0.50;;
12118;SDS011;6123;48.864;9.200;2023-12-20T04:23:06;1.52;;;0.43;;
12118;SDS011;6123;48.864;9.200;2023-12-20T04:25:31;0.95;;;0.47;;
12118;SDS011;6123;48.864;9.200;2023-12-20T04:27:57;1.17;;;0.40;;
12118;SDS011;6123;48.864;9.200;2023-12-20T04:30:22;0.30;;;0.30;;
12118;SDS011;6123;48.864;9.200;2023-12-20T04:32:48;0.28;;;0.28;;
12118;SDS011;6123;48.864;9.200;2023-12-20T04:35:13;0.20;;;0.20;;
12118;SDS011;6123;48.864;9.200;2023-12-20T04:37:39;0.17;;;0.17;;
12118;SDS011;6123;48.864;9.200;2023-12-20T04:40:04;0.30;;;0.30;;
12118;SDS011;6123;48.864;9.200;2023-12-20T04:42:30;0.55;;;0.40;;
12118;SDS011;6123;48.864;9.200;2023-12-20T04:44:56;0.30;;;0.30;;
12118;SDS011;6123;48.864;9.200;2023-12-20T04:47:21;0.32;;;0.20;;
12118;SDS011;6123;48.864;9.200;2023-12-20T04:49:47;0.30;;;0.30;;
12118;SDS011;6123;48.864;9.200;2023-12-20T04:52:13;0.20;;;0.20;;
12118;SDS011;6123;48.864;9.200;2023-12-20T04:54:39;0.30;;;0.30;;
12118;SDS011;6123;48.864;9.200;2023-12-20T04:57:05;0.30;;;0.30;;
12118;SDS011;6123;48.864;9.200;2023-12-20T04:59:30;0.35;;;0.35;;
12118;SDS011;6123;48.864;9.200;2023-12-20T05:01:55;0.32;;;0.32;;
12118;SDS011;6123;48.864;9.200;2023-12-20T05:04:22;0.38;;;0.30;;
12118;SDS011;6123;48.864;9.200;2023-12-20T05:06:48;1.27;;;0.30;;
12118;SDS011;6123;48.864;9.200;2023-12-20T05:09:15;0.93;;;0.30;;
12118;SDS011;6123;48.864;9.200;2023-12-20T05:11:40;0.30;;;0.30;;
12118;SDS011;6123;48.864;9.200;2023-12-20T05:14:06;0.35;;;0.30;;
12118;SDS011;6123;48.864;9.200;2023-12-20T05:16:32;0.63;;;0.43;;
12118;SDS011;6123;48.864;9.200;2023-12-20T05:18:57;0.32;;;0.32;;
12118;SDS011;6123;48.864;9.200;2023-12-20T05:21:25;1.08;;;0.30;;
12118;SDS011;6123;48.864;9.200;2023-12-20T05:23:51;0.30;;;0.30;;
12118;SDS011;6123;48.864;9.200;2023-12-20T05:26:16;0.40;;;0.40;;
12118;SDS011;6123;48.864;9.200;2023-12-20T05:28:42;0.80;;;0.60;;
12118;SDS011;6123;48.864;9.200;2023-12-20T05:31:07;0.50;;;0.50;;
12118;SDS011;6123;48.864;9.200;2023-12-20T05:33:33;0.60;;;0.55;;
12118;SDS011;6123;48.864;9.200;2023-12-20T05:35:58;1.00;;;0.93;;
12118;SDS011;6123;48.864;9.200;2023-12-20T05:38:24;0.73;;;0.73;;
12118;SDS011;6123;48.864;9.200;2023-12-20T05:40:49;0.60;;;0.60;;
12118;SDS011;6123;48.864;9.200;2023-12-20T05:43:15;0.88;;;0.88;;
12118;SDS011;6123;48.864;9.200;2023-12-20T05:45:40;1.02;;;1.00;;
12118;SDS011;6123;48.864;9.200;2023-12-20T05:48:07;1.15;;;1.13;;
12118;SDS011;6123;48.864;9.200;2023-12-20T05:50:32;1.15;;;1.08;;
12118;SDS011;6123;48.864;9.200;2023-12-20T05:52:57;1.50;;;1.40;;
12118;SDS011;6123;48.864;9.200;2023-12-20T05:55:23;1.48;;;1.38;;
12118;SDS011;6123;48.864;9.200;2023-12-20T05:57:49;1.35;;;1.27;;
12118;SDS011;6123;48.864;9.200;2023-12-20T06:00:14;1.75;;;1.42;;
12118;SDS011;6123;48.864;9.200;2023-12-20T06:02:41;1.38;;;1.27;;
12118;SDS011;6123;48.864;9.200;2023-12-20T06:05:06;2.30;;;1.40;;
12118;SDS011;6123;48.864;9.200;2023-12-20T06:07:32;1.40;;;1.30;;
12118;SDS011;6123;48.864;9.200;2023-12-20T06:09:57;1.00;;;1.00;;
12118;SDS011;6123;48.864;9.200;2023-12-20T06:12:23;1.15;;;1.10;;
12118;SDS011;6123;48.864;9.200;2023-12-20T06:14:48;1.20;;;1.08;;
12118;SDS011;6123;48.864;9.200;2023-12-20T06:17:14;1.35;;;1.20;;
12118;SDS011;6123;48.864;9.200;2023-12-20T06:19:40;1.77;;;1.27;;
12118;SDS011;6123;48.864;9.200;2023-12-20T06:22:07;1.23;;;1.20;;
12118;SDS011;6123;48.864;9.200;2023-12-20T06:24:33;1.38;;;1.10;;
12118;SDS011;6123;48.864;9.200;2023-12-20T06:26:59;1.23;;;1.13;;
12118;SDS011;6123;48.864;9.200;2023-12-20T06:29:25;1.17;;;1.15;;
12118;SDS011;6123;48.864;9.200;2023-12-20T06:31:51;1.50;;;1.40;;
12118;SDS011;6123;48.864;9.200;2023-12-20T06:34:17;1.30;;;1.20;;
12118;SDS011;6123;48.864;9.200;2023-12-20T06:36:42;1.45;;;1.35;;
12118;SDS011;6123;48.864;9.200;2023-12-20T06:39:08;1.10;;;1.00;;
12118;SDS011;6123;48.864;9.200;2023-12-20T06:41:33;1.42;;;1.33;;
12118;SDS011;6123;48.864;9.200;2023-12-20T06:43:59;2.22;;;1.92;;
12118;SDS011;6123;48.864;9.200;2023-12-20T06:46:24;2.03;;;1.70;;
12118;SDS011;6123;48.864;9.200;2023-12-20T06:48:50;2.28;;;1.90;;
12118;SDS011;6123;48.864;9.200;2023-12-20T06:51:16;1.98;;;1.88;;
12118;SDS011;6123;48.864;9.200;2023-12-20T06:53:42;1.80;;;1.70;;
12118;SDS011;6123;48.864;9.200;2023-12-20T06:56:08;2.20;;;2.10;;
12118;SDS011;6123;48.864;9.200;2023-12-20T06:58:35;1.65;;;1.55;;
12118;SDS011;6123;48.864;9.200;2023-12-20T07:01:01;2.10;;;2.00;;
12118;SDS011;6123;48.864;9.200;2023-12-20T07:03:27;2.40;;;2.20;;
12118;SDS011;6123;48.864;9.200;2023-12-20T07:05:52;2.53;;;2.42;;
12118;SDS011;6123;48.864;9.200;2023-12-20T07:08:18;2.90;;;2.60;;
12118;SDS011;6123;48.864;9.200;2023-12-20T07:10:44;2.42;;;2.33;;
12118;SDS011;6123;48.864;9.200;2023-12-20T07:13:09;3.10;;;2.90;;
12118;SDS011;6123;48.864;9.200;2023-12-20T07:15:35;2.83;;;2.65;;
12118;SDS011;6123;48.864;9.200;2023-12-20T07:18:01;3.13;;;2.63;;
12118;SDS011;6123;48.864;9.200;2023-12-20T07:20:27;3.22;;;3.03;;
12118;SDS011;6123;48.864;9.200;2023-12-20T07:22:53;3.72;;;3.53;;
12118;SDS011;6123;48.864;9.200;2023-12-20T07:25:18;4.00;;;3.75;;
12118;SDS011;6123;48.864;9.200;2023-12-20T07:27:45;3.17;;;2.97;;
12118;SDS011;6123;48.864;9.200;2023-12-20T07:30:10;3.30;;;3.05;;
12118;SDS011;6123;48.864;9.200;2023-12-20T07:32:36;3.25;;;3.05;;
12118;SDS011;6123;48.864;9.200;2023-12-20T07:35:02;3.10;;;2.90;;
12118;SDS011;6123;48.864;9.200;2023-12-20T07:37:28;3.00;;;2.80;;
12118;SDS011;6123;48.864;9.200;2023-12-20T07:39:53;2.97;;;2.78;;
12118;SDS011;6123;48.864;9.200;2023-12-20T07:42:19;3.33;;;3.10;;
12118;SDS011;6123;48.864;9.200;2023-12-20T07:44:44;2.90;;;2.70;;
12118;SDS011;6123;48.864;9.200;2023-12-20T07:47:10;2.60;;;2.42;;
12118;SDS011;6123;48.864;9.200;2023-12-20T07:49:37;3.00;;;2.80;;
12118;SDS011;6123;48.864;9.200;2023-12-20T07:52:02;2.80;;;2.53;;
12118;SDS011;6123;48.864;9.200;2023-12-20T07:54:28;2.80;;;2.60;;
12118;SDS011;6123;48.864;9.200;2023-12-20T07:56:53;2.97;;;2.25;;
12118;SDS011;6123;48.864;9.200;2023-12-20T07:59:19;2.50;;;2.30;;
12118;SDS011;6123;48.864;9.200;2023-12-20T08:01:44;3.28;;;2.97;;
12118;SDS011;6123;48.864;9.200;2023-12-20T08:04:10;2.45;;;2.35;;
12118;SDS011;6123;48.864;9.200;2023-12-20T08:06:35;2.30;;;2.10;;
12118;SDS011;6123;48.864;9.200;2023-12-20T08:09:01;2.20;;;2.10;;
12118;SDS011;6123;48.864;9.200;2023-12-20T08:11:26;1.92;;;1.83;;
12118;SDS011;6123;48.864;9.200;2023-12-20T08:13:52;2.85;;;2.65;;
12118;SDS011;6123;48.864;9.200;2023-12-20T08:16:17;3.38;;;2.53;;
12118;SDS011;6123;48.864;9.200;2023-12-20T08:18:43;2.88;;;2.58;;
12118;SDS011;6123;48.864;9.200;2023-12-20T08:21:09;2.60;;;2.40;;
12118;SDS011;6123;48.864;9.200;2023-12-20T08:23:34;2.65;;;2.45;;
12118;SDS011;6123;48.864;9.200;2023-12-20T08:26:04;2.78;;;2.58;;
12118;SDS011;6123;48.864;9.200;2023-12-20T08:28:30;3.00;;;2.80;;
12118;SDS011;6123;48.864;9.200;2023-12-20T08:30:56;2.85;;;2.65;;
12118;SDS011;6123;48.864;9.200;2023-12-20T08:33:21;3.92;;;2.70;;
12118;SDS011;6123;48.864;9.200;2023-12-20T08:35:47;2.60;;;2.42;;
12118;SDS011;6123;48.864;9.200;2023-12-20T08:38:13;2.70;;;2.50;;
12118;SDS011;6123;48.864;9.200;2023-12-20T08:40:39;2.75;;;2.55;;
12118;SDS011;6123;48.864;9.200;2023-12-20T08:43:04;2.85;;;2.63;;
12118;SDS011;6123;48.864;9.200;2023-12-20T08:45:30;2.80;;;2.60;;
12118;SDS011;6123;48.864;9.200;2023-12-20T08:47:55;2.42;;;2.22;;
12118;SDS011;6123;48.864;9.200;2023-12-20T08:50:21;2.72;;;2.53;;
12118;SDS011;6123;48.864;9.200;2023-12-20T08:52:46;2.80;;;2.60;;
12118;SDS011;6123;48.864;9.200;2023-12-20T08:55:12;2.78;;;2.58;;
12118;SDS011;6123;48.864;9.200;2023-12-20T08:57:38;3.50;;;3.20;;
12118;SDS011;6123;48.864;9.200;2023-12-20T09:00:03;3.20;;;2.90;;
12118;SDS011;6123;48.864;9.200;2023-12-20T09:02:29;3.53;;;3.08;;
12118;SDS011;6123;48.864;9.200;2023-12-20T09:04:55;3.28;;;2.95;;
12118;SDS011;6123;48.864;9.200;2023-12-20T09:07:23;3.30;;;2.95;;
12118;SDS011;6123;48.864;9.200;2023-12-20T09:09:50;2.88;;;2.67;;
12118;SDS011;6123;48.864;9.200;2023-12-20T09:12:16;2.47;;;2.28;;
12118;SDS011;6123;48.864;9.200;2023-12-20T09:14:49;2.42;;;2.22;;
12118;SDS011;6123;48.864;9.200;2023-12-20T09:17:16;2.60;;;2.40;;
12118;SDS011;6123;48.864;9.200;2023-12-20T09:19:42;2.97;;;2.22;;
12118;SDS011;6123;48.864;9.200;2023-12-20T09:22:09;2.88;;;2.67;;
12118;SDS011;6123;48.864;9.200;2023-12-20T09:24:34;2.25;;;2.05;;
12118;SDS011;6123;48.864;9.200;2023-12-20T09:27:00;2.38;;;2.22;;
12118;SDS011;6123;48.864;9.200;2023-12-20T09:29:26;2.10;;;1.73;;
12118;SDS011;6123;48.864;9.200;2023-12-20T09:31:51;2.35;;;2.10;;
12118;SDS011;6123;48.864;9.200;2023-12-20T09:34:17;2.65;;;1.95;;
12118;SDS011;6123;48.864;9.200;2023-12-20T09:36:42;2.33;;;2.13;;
12118;SDS011;6123;48.864;9.200;2023-12-20T09:39:14;2.38;;;2.10;;
12118;SDS011;6123;48.864;9.200;2023-12-20T09:41:44;2.10;;;1.70;;
12118;SDS011;6123;48.864;9.200;2023-12-20T09:44:18;1.70;;;1.58;;
12118;SDS011;6123;48.864;9.200;2023-12-20T09:46:45;2.72;;;2.05;;
12118;SDS011;6123;48.864;9.200;2023-12-20T09:49:14;2.72;;;1.75;;
12118;SDS011;6123;48.864;9.200;2023-12-20T09:51:42;3.42;;;1.88;;
12118;SDS011;6123;48.864;9.200;2023-12-20T09:54:07;3.53;;;1.50;;
12118;SDS011;6123;48.864;9.200;2023-12-20T09:56:35;2.95;;;1.55;;
12118;SDS011;6123;48.864;9.200;2023-12-20T09:59:01;2.78;;;1.67;;
12118;SDS011;6123;48.864;9.200;2023-12-20T10:01:27;5.47;;;1.85;;
12118;SDS011;6123;48.864;9.200;2023-12-20T10:03:54;3.60;;;1.48;;
12118;SDS011;6123;48.864;9.200;2023-12-20T10:06:21;3.95;;;1.80;;
12118;SDS011;6123;48.864;9.200;2023-12-20T10:08:47;2.47;;;1.55;;
12118;SDS011;6123;48.864;9.200;2023-12-20T10:11:12;2.97;;;1.35;;
12118;SDS011;6123;48.864;9.200;2023-12-20T10:13:39;4.32;;;1.70;;
12118;SDS011;6123;48.864;9.200;2023-12-20T10:16:09;5.30;;;1.70;;
12118;SDS011;6123;48.864;9.200;2023-12-20T10:18:34;3.88;;;1.33;;
12118;SDS011;6123;48.864;9.200;2023-12-20T10:21:00;3.85;;;1.48;;
12118;SDS011;6123;48.864;9.200;2023-12-20T10:23:26;3.38;;;1.65;;
12118;SDS011;6123;48.864;9.200;2023-12-20T10:26:01;6.72;;;1.42;;
12118;SDS011;6123;48.864;9.200;2023-12-20T10:28:28;2.97;;;1.58;;
12118;SDS011;6123;48.864;9.200;2023-12-20T10:30:59;3.45;;;1.70;;
12118;SDS011;6123;48.864;9.200;2023-12-20T10:33:28;3.83;;;1.45;;
12118;SDS011;6123;48.864;9.200;2023-12-20T10:35:55;4.05;;;1.50;;
12118;SDS011;6123;48.864;9.200;2023-12-20T10:38:21;1.95;;;1.17;;
12118;SDS011;6123;48.864;9.200;2023-12-20T10:40:47;2.85;;;1.63;;
12118;SDS011;6123;48.864;9.200;2023-12-20T10:43:14;4.05;;;1.83;;
12118;SDS011;6123;48.864;9.200;2023-12-20T10:45:41;2.63;;;1.35;;
12118;SDS011;6123;48.864;9.200;2023-12-20T10:48:07;2.15;;;1.30;;
12118;SDS011;6123;48.864;9.200;2023-12-20T10:50:35;3.55;;;1.48;;
12118;SDS011;6123;48.864;9.200;2023-12-20T10:53:03;2.58;;;1.25;;
12118;SDS011;6123;48.864;9.200;2023-12-20T10:55:29;3.83;;;1.20;;
12118;SDS011;6123;48.864;9.200;2023-12-20T10:57:58;2.80;;;1.48;;
12118;SDS011;6123;48.864;9.200;2023-12-20T11:00:26;2.08;;;1.55;;
12118;SDS011;6123;48.864;9.200;2023-12-20T11:02:55;4.75;;;1.95;;
12118;SDS011;6123;48.864;9.200;2023-12-20T11:05:42;3.03;;;1.80;;
12118;SDS011;6123;48.864;9.200;2023-12-20T11:08:41;2.38;;;1.25;;
12118;SDS011;6123;48.864;9.200;2023-12-20T11:11:39;2.83;;;1.23;;
12118;SDS011;6123;48.864;9.200;2023-12-20T11:14:20;2.88;;;1.45;;
12118;SDS011;6123;48.864;9.200;2023-12-20T11:16:50;3.47;;;1.38;;
12118;SDS011;6123;48.864;9.200;2023-12-20T11:19:16;2.97;;;1.30;;
12118;SDS011;6123;48.864;9.200;2023-12-20T11:21:42;1.67;;;1.15;;
12118;SDS011;6123;48.864;9.200;2023-12-20T11:24:07;3.10;;;1.50;;
12118;SDS011;6123;48.864;9.200;2023-12-20T11:26:34;2.78;;;1.38;;
12118;SDS011;6123;48.864;9.200;2023-12-20T11:32:47;4.85;;;1.88;;
12118;SDS011;6123;48.864;9.200;2023-12-20T11:34:55;5.60;;;1.70;;
12118;SDS011;6123;48.864;9.200;2023-12-20T11:37:21;3.78;;;1.40;;
12118;SDS011;6123;48.864;9.200;2023-12-20T11:39:56;9.20;;;1.60;;
12118;SDS011;6123;48.864;9.200;2023-12-20T11:42:25;2.70;;;1.50;;
12118;SDS011;6123;48.864;9.200;2023-12-20T11:44:51;2.97;;;1.42;;
12118;SDS011;6123;48.864;9.200;2023-12-20T11:47:16;4.65;;;1.70;;
12118;SDS011;6123;48.864;9.200;2023-12-20T11:49:44;3.38;;;1.70;;
12118;SDS011;6123;48.864;9.200;2023-12-20T11:52:12;2.10;;;1.40;;
12118;SDS011;6123;48.864;9.200;2023-12-20T11:54:38;4.03;;;1.83;;
12118;SDS011;6123;48.864;9.200;2023-12-20T11:57:03;4.80;;;2.28;;
12118;SDS011;6123;48.864;9.200;2023-12-20T11:59:30;2.17;;;1.35;;
12118;SDS011;6123;48.864;9.200;2023-12-20T12:01:56;2.38;;;1.30;;
12118;SDS011;6123;48.864;9.200;2023-12-20T12:04:25;3.55;;;1.70;;
12118;SDS011;6123;48.864;9.200;2023-12-20T12:06:51;5.28;;;1.73;;
12118;SDS011;6123;48.864;9.200;2023-12-20T12:09:17;3.55;;;1.60;;
12118;SDS011;6123;48.864;9.200;2023-12-20T12:11:42;3.35;;;1.63;;
12118;SDS011;6123;48.864;9.200;2023-12-20T12:14:08;3.80;;;1.60;;
12118;SDS011;6123;48.864;9.200;2023-12-20T12:16:34;3.35;;;1.52;;
12118;SDS011;6123;48.864;9.200;2023-12-20T12:18:59;4.22;;;1.60;;
12118;SDS011;6123;48.864;9.200;2023-12-20T12:21:25;3.80;;;1.60;;
12118;SDS011;6123;48.864;9.200;2023-12-20T12:23:51;2.70;;;1.77;;
12118;SDS011;6123;48.864;9.200;2023-12-20T12:26:16;2.88;;;1.60;;
12118;SDS011;6123;48.864;9.200;2023-12-20T12:28:42;2.67;;;1.85;;
12118;SDS011;6123;48.864;9.200;2023-12-20T12:31:08;4.30;;;1.83;;
12118;SDS011;6123;48.864;9.200;2023-12-20T12:33:40;3.15;;;1.70;;
12118;SDS011;6123;48.864;9.200;2023-12-20T12:36:06;3.58;;;1.50;;
12118;SDS011;6123;48.864;9.200;2023-12-20T12:38:33;2.58;;;1.40;;
12118;SDS011;6123;48.864;9.200;2023-12-20T12:40:59;2.65;;;1.50;;
12118;SDS011;6123;48.864;9.200;2023-12-20T12:43:25;3.40;;;1.77;;
12118;SDS011;6123;48.864;9.200;2023-12-20T12:45:51;3.10;;;1.77;;
12118;SDS011;6123;48.864;9.200;2023-12-20T12:48:17;3.35;;;1.60;;
12118;SDS011;6123;48.864;9.200;2023-12-20T12:50:43;4.30;;;2.08;;
12118;SDS011;6123;48.864;9.200;2023-12-20T12:53:10;3.28;;;2.10;;
12118;SDS011;6123;48.864;9.200;2023-12-20T12:55:36;2.55;;;1.92;;
12118;SDS011;6123;48.864;9.200;2023-12-20T12:58:01;5.53;;;2.03;;
12118;SDS011;6123;48.864;9.200;2023-12-20T13:00:27;3.22;;;1.95;;
12118;SDS011;6123;48.864;9.200;2023-12-20T13:02:52;3.42;;;1.73;;
12118;SDS011;6123;48.864;9.200;2023-12-20T13:05:18;4.72;;;1.60;;
12118;SDS011;6123;48.864;9.200;2023-12-20T13:07:43;2.95;;;1.83;;
12118;SDS011;6123;48.864;9.200;2023-12-20T13:10:10;3.72;;;1.52;;
12118;SDS011;6123;48.864;9.200;2023-12-20T13:12:36;2.88;;;1.55;;
12118;SDS011;6123;48.864;9.200;2023-12-20T13:15:02;3.03;;;1.40;;
12118;SDS011;6123;48.864;9.200;2023-12-20T13:17:28;3.83;;;1.40;;
12118;SDS011;6123;48.864;9.200;2023-12-20T13:19:54;3.25;;;1.45;;
12118;SDS011;6123;48.864;9.200;2023-12-20T13:22:20;4.75;;;1.77;;
12118;SDS011;6123;48.864;9.200;2023-12-20T13:24:45;3.40;;;1.40;;
12118;SDS011;6123;48.864;9.200;2023-12-20T13:27:11;4.18;;;1.48;;
12118;SDS011;6123;48.864;9.200;2023-12-20T13:29:36;2.55;;;1.27;;
12118;SDS011;6123;48.864;9.200;2023-12-20T13:32:02;2.63;;;1.27;;
12118;SDS011;6123;48.864;9.200;2023-12-20T13:34:28;1.90;;;1.20;;
12118;SDS011;6123;48.864;9.200;2023-12-20T13:36:54;3.08;;;1.42;;
12118;SDS011;6123;48.864;9.200;2023-12-20T13:39:19;2.88;;;1.15;;
12118;SDS011;6123;48.864;9.200;2023-12-20T13:41:46;2.80;;;1.25;;
12118;SDS011;6123;48.864;9.200;2023-12-20T13:44:11;3.05;;;1.40;;
12118;SDS011;6123;48.864;9.200;2023-12-20T13:46:37;2.70;;;1.50;;
12118;SDS011;6123;48.864;9.200;2023-12-20T13:49:03;1.38;;;0.90;;
12118;SDS011;6123;48.864;9.200;2023-12-20T13:51:30;2.25;;;1.50;;
12118;SDS011;6123;48.864;9.200;2023-12-20T13:53:55;2.38;;;1.52;;
12118;SDS011;6123;48.864;9.200;2023-12-20T13:56:21;3.72;;;1.50;;
12118;SDS011;6123;48.864;9.200;2023-12-20T13:58:48;2.53;;;1.42;;
12118;SDS011;6123;48.864;9.200;2023-12-20T14:01:13;1.67;;;1.23;;
12118;SDS011;6123;48.864;9.200;2023-12-20T14:03:39;2.70;;;1.35;;
12118;SDS011;6123;48.864;9.200;2023-12-20T14:06:06;3.00;;;1.52;;
12118;SDS011;6123;48.864;9.200;2023-12-20T14:08:31;3.58;;;1.45;;
12118;SDS011;6123;48.864;9.200;2023-12-20T14:10:57;5.07;;;1.60;;
12118;SDS011;6123;48.864;9.200;2023-12-20T14:13:22;2.97;;;1.70;;
12118;SDS011;6123;48.864;9.200;2023-12-20T14:15:48;4.18;;;1.77;;
12118;SDS011;6123;48.864;9.200;2023-12-20T14:18:14;4.03;;;1.52;;
12118;SDS011;6123;48.864;9.200;2023-12-20T14:20:40;2.72;;;1.33;;
12118;SDS011;6123;48.864;9.200;2023-12-20T14:23:07;3.55;;;1.73;;
12118;SDS011;6123;48.864;9.200;2023-12-20T14:25:34;4.90;;;1.75;;
12118;SDS011;6123;48.864;9.200;2023-12-20T14:28:02;5.10;;;1.75;;
12118;SDS011;6123;48.864;9.200;2023-12-20T14:30:28;2.65;;;1.70;;
12118;SDS011;6123;48.864;9.200;2023-12-20T14:32:53;5.28;;;1.98;;
12118;SDS011;6123;48.864;9.200;2023-12-20T14:35:19;2.35;;;1.33;;
12118;SDS011;6123;48.864;9.200;2023-12-20T14:37:44;5.60;;;2.00;;
12118;SDS011;6123;48.864;9.200;2023-12-20T14:40:10;3.08;;;1.83;;
12118;SDS011;6123;48.864;9.200;2023-12-20T14:42:39;2.58;;;1.60;;
12118;SDS011;6123;48.864;9.200;2023-12-20T14:45:06;5.75;;;2.15;;
12118;SDS011;6123;48.864;9.200;2023-12-20T14:47:32;3.95;;;2.03;;
12118;SDS011;6123;48.864;9.200;2023-12-20T14:49:57;3.70;;;1.83;;
12118;SDS011;6123;48.864;9.200;2023-12-20T14:52:23;2.78;;;1.60;;
12118;SDS011;6123;48.864;9.200;2023-12-20T14:54:49;3.53;;;1.95;;
12118;SDS011;6123;48.864;9.200;2023-12-20T14:57:14;3.95;;;1.90;;